Coaldale, Nevada
Current Conditions -  °F | °C
As of 5:56 AM on Monday 20 Oct 2014 (Local Time) from KTPH Reporting Station
Clear Clear  
Wind Chill: 37°   Ceiling: Unl
Heat Index: 43°   Visibility: 10mi
Dew Point: 28°   Wind: 10mph
Humidity: 56%   Direction: 360°N
Pressure: 30.05"   Gusts: NA
Location:  38.4847°N, 116.233°W
Report Text: KTPH 201256Z AUTO 36009KT 10SM CLR 06/M02 A3005 RMK AO2 SLP132 T00611022
Loading
Personal Weather Stations






























Interactive Weather Map
Tropical Storm Tracking
New forecast layout! Learn more

10-Day Weather Forecast

Advertisements
Track Severe Weather on mobile